Time;durP1;ratioP1;P1;durP2;ratioP2;P2;SDS_P1;SDS_P2;PMS_P1;PMS_P2;Temp;Humidity;BMP_temperature;BMP_pressure;BME280_temperature;BME280_humidity;BME280_pressure;Samples;Min_cycle;Max_cycle;Signal;HPM_P1;HPM_P2
2022/10/08 00:01:13;;;;;;;13.27;11.20;;;;;;;14.36;100.00;98423.03;5108342;28;20270;-70
2022/10/08 00:03:42;;;;;;;12.73;11.20;;;;;;;14.25;100.00;98412.41;5104444;28;20593;-71
2022/10/08 00:06:12;;;;;;;12.53;11.20;;;;;;;14.17;100.00;98412.16;5104488;28;20303;-72
2022/10/08 00:08:41;;;;;;;13.90;11.50;;;;;;;14.09;100.00;98411.88;5103882;28;20271;-72
2022/10/08 00:11:11;;;;;;;14.60;11.63;;;;;;;13.98;100.00;98412.75;5106506;28;20258;-72
2022/10/08 00:13:40;;;;;;;14.70;11.23;;;;;;;13.92;100.00;98407.91;5109576;28;20269;-72
2022/10/08 00:16:08;;;;;;;16.00;11.73;;;;;;;13.92;100.00;98417.69;5108816;28;20694;-72
2022/10/08 00:18:35;;;;;;;13.87;10.80;;;;;;;13.98;100.00;98417.19;5105726;28;20267;-72
2022/10/08 00:21:06;;;;;;;13.07;11.30;;;;;;;14.06;100.00;98420.13;5107107;28;20264;-70
2022/10/08 00:23:33;;;;;;;12.63;11.30;;;;;;;14.15;100.00;98420.25;5109576;28;20267;-70
2022/10/08 00:26:03;;;;;;;12.60;10.63;;;;;;;14.24;100.00;98419.53;5109299;28;20523;-70
2022/10/08 00:28:31;;;;;;;12.80;11.27;;;;;;;14.33;100.00;98415.28;5115234;28;20254;-71
2022/10/08 00:30:57;;;;;;;13.60;11.50;;;;;;;14.44;100.00;98428.59;5109956;28;20258;-71
2022/10/08 00:33:24;;;;;;;13.37;11.37;;;;;;;14.50;100.00;98425.44;5106542;28;20275;-71
2022/10/08 00:35:51;;;;;;;14.27;11.60;;;;;;;14.53;100.00;98430.50;5109421;28;20290;-71
2022/10/08 00:38:17;;;;;;;13.37;11.27;;;;;;;14.52;100.00;98423.50;5112060;28;20223;-71
2022/10/08 00:40:45;;;;;;;12.60;11.30;;;;;;;14.49;100.00;98418.44;5110489;28;20258;-71
2022/10/08 00:43:15;;;;;;;14.30;11.50;;;;;;;14.42;100.00;98423.38;5108236;28;20260;-71
2022/10/08 00:45:45;;;;;;;12.83;11.17;;;;;;;14.31;100.00;98415.41;5109392;28;20286;-71
2022/10/08 00:48:15;;;;;;;14.83;11.67;;;;;;;14.18;100.00;98413.84;5112010;28;20259;-71
2022/10/08 00:50:42;;;;;;;14.43;12.10;;;;;;;14.01;100.00;98403.69;5109125;28;20223;-71
2022/10/08 00:53:09;;;;;;;15.57;12.23;;;;;;;13.90;100.00;98403.69;5108098;28;20591;-71
2022/10/08 00:55:39;;;;;;;14.73;12.33;;;;;;;13.77;100.00;98402.94;5108999;28;20245;-70
2022/10/08 00:58:12;;;;;;;17.63;12.70;;;;;;;13.68;100.00;98399.19;5111648;28;20232;-71
2022/10/08 01:00:39;;;;;;;18.73;13.70;;;;;;;13.63;100.00;98401.34;5106037;28;20251;-70
2022/10/08 01:03:08;;;;;;;15.83;13.00;;;;;;;13.57;100.00;98395.69;5107772;28;20275;-71
2022/10/08 01:05:44;;;;;;;14.33;12.83;;;;;;;13.55;100.00;98402.91;5110832;28;20227;-71
2022/10/08 01:08:18;;;;;;;14.93;12.43;;;;;;;13.47;100.00;98405.31;5110556;28;20243;-71
2022/10/08 01:10:55;;;;;;;13.73;11.47;;;;;;;13.43;100.00;98395.88;5107708;28;20581;-71
2022/10/08 01:13:38;;;;;;;17.00;12.30;;;;;;;13.42;100.00;98402.16;5110329;28;20224;-70
2022/10/08 01:16:16;;;;;;;13.33;11.97;;;;;;;13.45;100.00;98396.63;5109942;28;20325;-71
2022/10/08 01:18:52;;;;;;;14.77;11.57;;;;;;;13.48;100.00;98391.91;5107464;28;20286;-70
2022/10/08 01:21:32;;;;;;;13.23;11.53;;;;;;;13.52;100.00;98395.19;5110511;28;20223;-70
2022/10/08 01:24:22;;;;;;;12.90;11.60;;;;;;;13.55;100.00;98397.59;5109497;28;20574;-70
2022/10/08 01:26:57;;;;;;;13.47;11.27;;;;;;;13.57;100.00;98390.38;5097570;28;20255;-70
2022/10/08 01:29:29;;;;;;;14.43;12.07;;;;;;;13.58;100.00;98392.06;5108638;28;20232;-70
2022/10/08 01:32:02;;;;;;;12.67;11.30;;;;;;;13.60;100.00;98390.13;5110814;28;20255;-70
2022/10/08 01:34:34;;;;;;;13.90;11.57;;;;;;;13.60;100.00;98395.44;5112450;28;20299;-70
2022/10/08 01:37:05;;;;;;;14.23;12.17;;;;;;;13.61;100.00;98390.00;5109346;28;20250;-70
2022/10/08 01:39:35;;;;;;;13.27;11.57;;;;;;;13.64;100.00;98386.28;5108045;28;20260;-70
2022/10/08 01:42:04;;;;;;;15.17;12.03;;;;;;;13.70;100.00;98391.09;5107046;28;20259;-71
2022/10/08 01:44:39;;;;;;;12.30;10.87;;;;;;;13.73;100.00;98382.88;5115853;28;20575;-73
2022/10/08 01:47:10;;;;;;;12.80;11.30;;;;;;;13.74;100.00;98377.47;5114744;28;20255;-70
2022/10/08 01:49:42;;;;;;;14.60;12.23;;;;;;;13.77;100.00;98381.69;5110360;28;20262;-70
2022/10/08 01:52:15;;;;;;;14.60;11.70;;;;;;;13.77;100.00;98376.38;5110287;28;20262;-70
2022/10/08 01:54:44;;;;;;;17.47;13.40;;;;;;;13.78;100.00;98372.75;5110876;28;20270;-70
2022/10/08 01:57:11;;;;;;;13.90;12.50;;;;;;;13.78;100.00;98372.75;5110510;28;20630;-70
2022/10/08 01:59:45;;;;;;;17.63;13.30;;;;;;;13.78;100.00;98373.59;5106791;28;20647;-71
2022/10/08 02:02:17;;;;;;;17.53;13.70;;;;;;;13.72;100.00;98373.22;5106673;28;20267;-72
2022/10/08 02:04:43;;;;;;;14.33;12.47;;;;;;;13.73;100.00;98381.09;5108098;28;20629;-71
2022/10/08 02:07:14;;;;;;;15.30;13.30;;;;;;;13.74;100.00;98374.81;5108742;28;20280;-70
2022/10/08 02:09:43;;;;;;;15.60;12.50;;;;;;;13.79;100.00;98369.13;5111757;28;20285;-70
2022/10/08 02:12:11;;;;;;;14.83;12.63;;;;;;;13.75;100.00;98375.66;5110801;28;20263;-70
2022/10/08 02:14:42;;;;;;;13.30;11.60;;;;;;;13.65;100.00;98378.19;5107792;28;20226;-70
2022/10/08 02:17:20;;;;;;;14.17;11.83;;;;;;;13.62;100.00;98377.59;5109720;28;20311;-70
2022/10/08 02:19:53;;;;;;;15.77;13.03;;;;;;;13.62;100.00;98378.41;5110068;28;20593;-70
2022/10/08 02:22:24;;;;;;;14.60;12.17;;;;;;;13.61;100.00;98370.56;5107792;28;20267;-71
2022/10/08 02:24:56;;;;;;;14.83;11.70;;;;;;;13.62;100.00;98367.78;5108172;28;20635;-70
2022/10/08 02:27:30;;;;;;;14.00;11.30;;;;;;;13.56;100.00;98362.13;5111331;28;20614;-71
2022/10/08 02:30:06;;;;;;;13.90;11.67;;;;;;;13.48;100.00;98370.69;5109923;28;20234;-70
2022/10/08 02:32:38;;;;;;;15.17;12.30;;;;;;;13.40;100.00;98362.47;5107546;28;20307;-70
2022/10/08 02:35:16;;;;;;;16.63;12.77;;;;;;;13.34;100.00;98368.25;5106129;28;20599;-70
2022/10/08 02:37:47;;;;;;;14.50;12.73;;;;;;;13.31;100.00;98367.59;5106388;28;20239;-70
2022/10/08 02:40:17;;;;;;;15.13;11.97;;;;;;;13.32;100.00;98364.00;5109325;28;20572;-70
2022/10/08 02:42:49;;;;;;;13.43;12.03;;;;;;;13.35;100.00;98359.31;5102101;28;20321;-70
2022/10/08 02:45:21;;;;;;;14.33;11.30;;;;;;;13.41;100.00;98364.16;5109415;28;20265;-70
2022/10/08 02:47:53;;;;;;;14.40;11.87;;;;;;;13.49;100.00;98374.16;5108198;28;20253;-70
2022/10/08 02:50:23;;;;;;;14.77;12.70;;;;;;;13.57;100.00;98369.94;5106108;28;20712;-70
2022/10/08 02:52:51;;;;;;;15.97;12.07;;;;;;;13.66;100.00;98373.72;5105687;28;20268;-70
2022/10/08 02:55:27;;;;;;;15.67;12.53;;;;;;;13.76;100.00;98380.00;5105303;28;20253;-70
2022/10/08 02:57:59;;;;;;;13.63;11.50;;;;;;;13.82;100.00;98369.72;5109315;28;20279;-71
2022/10/08 03:00:34;;;;;;;14.47;12.07;;;;;;;13.81;100.00;98377.84;5110546;28;20259;-70
2022/10/08 03:03:07;;;;;;;13.17;11.53;;;;;;;13.81;100.00;98378.66;5110508;28;20265;-70
2022/10/08 03:05:36;;;;;;;15.97;12.10;;;;;;;13.84;100.00;98374.94;5107294;28;20262;-70
2022/10/08 03:08:04;;;;;;;12.97;11.20;;;;;;;13.86;100.00;98380.94;5106917;28;20247;-70
2022/10/08 03:10:36;;;;;;;13.40;11.87;;;;;;;13.94;100.00;98383.88;5108807;28;20233;-70
2022/10/08 03:13:03;;;;;;;15.13;11.20;;;;;;;13.99;100.00;98382.53;5110357;28;20286;-70
2022/10/08 03:15:33;;;;;;;12.17;10.47;;;;;;;14.03;100.00;98383.13;5106833;28;20289;-70
2022/10/08 03:18:03;;;;;;;13.27;11.70;;;;;;;14.03;100.00;98384.00;5107630;28;20245;-71
2022/10/08 03:20:31;;;;;;;12.17;10.83;;;;;;;14.03;100.00;98381.34;5110321;28;20252;-70
2022/10/08 03:23:00;;;;;;;11.83;10.57;;;;;;;14.03;100.00;98384.00;5109918;28;20263;-70
2022/10/08 03:25:27;;;;;;;13.97;10.70;;;;;;;14.06;100.00;98394.38;5106397;28;20239;-71
2022/10/08 03:27:53;;;;;;;15.30;12.33;;;;;;;14.10;100.00;98387.00;5107917;28;20262;-70
2022/10/08 03:30:20;;;;;;;15.07;11.97;;;;;;;14.13;100.00;98400.06;5110160;28;20263;-71
2022/10/08 03:32:48;;;;;;;13.17;11.77;;;;;;;14.08;100.00;98396.91;5109397;28;20626;-71
2022/10/08 03:35:15;;;;;;;14.53;12.00;;;;;;;14.00;100.00;98404.66;5106267;28;20647;-71
2022/10/08 03:37:41;;;;;;;15.67;13.10;;;;;;;13.95;100.00;98402.38;5105786;28;20593;-70
2022/10/08 03:40:10;;;;;;;14.50;12.53;;;;;;;13.89;100.00;98412.63;5109965;28;20228;-70
2022/10/08 03:42:36;;;;;;;13.77;11.43;;;;;;;13.90;100.00;98420.47;5109265;28;20270;-71
2022/10/08 03:45:03;;;;;;;12.90;11.50;;;;;;;13.95;100.00;98417.44;5106145;28;20260;-71
2022/10/08 03:47:30;;;;;;;12.43;10.80;;;;;;;13.90;100.00;98420.47;5107182;28;20259;-71
2022/10/08 03:49:58;;;;;;;13.27;10.60;;;;;;;13.94;100.00;98426.41;5109821;28;20262;-71
2022/10/08 03:52:24;;;;;;;13.73;10.90;;;;;;;13.96;100.00;98422.66;5109467;28;20349;-71
2022/10/08 03:54:51;;;;;;;12.70;10.40;;;;;;;13.97;100.00;98426.13;5109782;28;20294;-71
2022/10/08 03:57:17;;;;;;;12.33;10.60;;;;;;;13.88;100.00;98426.88;5107504;28;20360;-71
2022/10/08 03:59:44;;;;;;;12.23;10.43;;;;;;;13.77;100.00;98429.50;5104566;28;21544;-71
2022/10/08 04:02:11;;;;;;;13.00;11.33;;;;;;;13.73;100.00;98428.91;5102644;28;20601;-71
2022/10/08 04:04:37;;;;;;;11.83;10.10;;;;;;;13.70;100.00;98429.13;5105882;28;20263;-71
2022/10/08 04:07:05;;;;;;;13.27;10.30;;;;;;;13.66;100.00;98429.47;5106127;28;20280;-71
2022/10/08 04:09:32;;;;;;;10.87;9.50;;;;;;;13.61;100.00;98434.28;5109673;28;20259;-71
2022/10/08 04:11:59;;;;;;;11.07;9.37;;;;;;;13.59;100.00;98437.09;5109740;28;20230;-71
2022/10/08 04:14:25;;;;;;;11.30;9.53;;;;;;;13.67;100.00;98440.00;5108834;28;20596;-71
2022/10/08 04:16:54;;;;;;;12.93;10.17;;;;;;;13.82;100.00;98437.97;5105768;28;20285;-71
2022/10/08 04:19:20;;;;;;;10.30;8.97;;;;;;;13.94;100.00;98439.69;5104449;28;20322;-71
2022/10/08 04:21:47;;;;;;;10.50;9.33;;;;;;;14.03;100.00;98436.28;5104371;28;20644;-71
2022/10/08 04:24:15;;;;;;;11.77;9.50;;;;;;;13.92;100.00;98445.09;5107611;28;20354;-71
2022/10/08 04:26:41;;;;;;;11.07;9.80;;;;;;;13.89;100.00;98439.19;5108392;28;20261;-72
2022/10/08 04:29:11;;;;;;;11.13;9.43;;;;;;;13.90;100.00;98430.25;5102699;28;20358;-71
2022/10/08 04:31:38;;;;;;;12.13;9.63;;;;;;;13.96;100.00;98435.94;5104370;28;20578;-71
2022/10/08 04:34:04;;;;;;;12.77;9.63;;;;;;;13.92;100.00;98438.94;5107696;28;20600;-71
2022/10/08 04:36:31;;;;;;;11.07;9.87;;;;;;;13.85;100.00;98441.25;5108065;28;20277;-71
2022/10/08 04:38:57;;;;;;;10.93;9.37;;;;;;;13.84;100.00;98444.00;5105718;28;20270;-71
2022/10/08 04:41:27;;;;;;;11.07;9.87;;;;;;;13.80;100.00;98442.53;5104305;28;20266;-71
2022/10/08 04:43:55;;;;;;;13.10;9.97;;;;;;;13.81;100.00;98446.91;5107468;28;20254;-71
2022/10/08 04:46:22;;;;;;;12.20;10.20;;;;;;;13.74;100.00;98451.00;5108040;28;20257;-70
2022/10/08 04:48:50;;;;;;;14.07;11.10;;;;;;;13.74;100.00;98457.16;5104231;28;20263;-70
2022/10/08 04:51:18;;;;;;;12.20;10.30;;;;;;;13.82;100.00;98453.91;5104140;28;20266;-70
2022/10/08 04:53:45;;;;;;;13.90;10.47;;;;;;;13.83;100.00;98444.97;5107488;28;20559;-70
2022/10/08 04:56:14;;;;;;;11.80;10.57;;;;;;;13.79;100.00;98456.78;5107315;28;20262;-70
2022/10/08 04:58:42;;;;;;;12.50;10.00;;;;;;;13.69;100.00;98453.16;5104076;28;20345;-70
2022/10/08 05:01:10;;;;;;;14.77;10.97;;;;;;;13.71;100.00;98456.53;5103988;28;20672;-70
2022/10/08 05:03:38;;;;;;;13.57;10.90;;;;;;;13.73;100.00;98459.91;5107620;28;20227;-70
2022/10/08 05:06:05;;;;;;;15.07;11.33;;;;;;;13.68;100.00;98467.41;5107356;28;20269;-70
2022/10/08 05:08:32;;;;;;;16.23;11.87;;;;;;;13.64;100.00;98464.13;5103861;28;20286;-70
2022/10/08 05:10:59;;;;;;;16.53;12.57;;;;;;;13.66;100.00;98469.31;5103913;28;20265;-72
2022/10/08 05:13:26;;;;;;;16.80;11.40;;;;;;;13.63;100.00;98464.25;5108848;28;20254;-70
2022/10/08 05:15:54;;;;;;;12.97;10.60;;;;;;;13.53;100.00;98463.25;5111353;28;20301;-70
2022/10/08 05:18:21;;;;;;;16.77;12.30;;;;;;;13.41;100.00;98465.03;5107567;28;20280;-70
2022/10/08 05:20:48;;;;;;;15.67;11.83;;;;;;;13.34;100.00;98468.25;5105657;28;20271;-70
2022/10/08 05:23:15;;;;;;;17.03;12.57;;;;;;;13.26;100.00;98473.31;5110837;28;20258;-70
2022/10/08 05:25:41;;;;;;;16.40;12.23;;;;;;;13.20;100.00;98468.44;5111085;28;20261;-70
2022/10/08 05:28:08;;;;;;;14.50;11.67;;;;;;;13.15;100.00;98463.47;5111129;28;20257;-70
2022/10/08 05:30:34;;;;;;;15.90;12.20;;;;;;;13.09;100.00;98465.75;5112414;28;20266;-70
2022/10/08 05:33:02;;;;;;;13.00;10.83;;;;;;;13.05;100.00;98472.22;5109492;28;20281;-70
2022/10/08 05:35:29;;;;;;;14.07;11.37;;;;;;;12.99;100.00;98470.88;5108499;28;20265;-70
2022/10/08 05:37:56;;;;;;;14.93;11.70;;;;;;;12.92;100.00;98474.91;5111914;28;20308;-72
2022/10/08 05:40:23;;;;;;;15.77;12.07;;;;;;;12.89;100.00;98476.94;5112248;28;20660;-70
2022/10/08 05:42:50;;;;;;;16.07;12.43;;;;;;;12.82;100.00;98480.97;5109437;28;20519;-69
2022/10/08 05:45:16;;;;;;;15.50;12.07;;;;;;;12.77;100.00;98478.66;5108244;28;20222;-70
2022/10/08 05:47:43;;;;;;;15.80;12.43;;;;;;;12.76;100.00;98473.47;5109803;28;20254;-70
2022/10/08 05:50:11;;;;;;;18.40;12.37;;;;;;;12.78;100.00;98484.84;5112031;28;20289;-70
2022/10/08 05:52:37;;;;;;;15.83;11.97;;;;;;;12.77;100.00;98478.66;5109501;28;20226;-72
2022/10/08 05:55:05;;;;;;;15.77;12.47;;;;;;;12.74;100.00;98484.22;5114302;28;20226;-71
2022/10/08 05:57:31;;;;;;;14.50;12.03;;;;;;;12.75;100.00;98493.00;5099044;28;20239;-69
2022/10/08 05:59:58;;;;;;;18.27;12.80;;;;;;;12.76;100.00;98492.03;5105207;28;20289;-70
2022/10/08 06:02:25;;;;;;;18.07;12.43;;;;;;;12.77;100.00;98491.94;5107243;28;20265;-71
2022/10/08 06:04:51;;;;;;;16.77;12.57;;;;;;;12.76;100.00;98492.91;5108902;28;20258;-70
2022/10/08 06:07:19;;;;;;;18.77;12.80;;;;;;;12.79;100.00;98489.16;5106173;28;20281;-70
2022/10/08 06:09:46;;;;;;;18.30;12.77;;;;;;;12.77;100.00;98499.06;5105072;28;20222;-70
2022/10/08 06:12:12;;;;;;;17.53;12.43;;;;;;;12.81;100.00;98500.50;5106709;28;20265;-70
2022/10/08 06:14:39;;;;;;;17.23;11.83;;;;;;;12.82;100.00;98507.50;5107122;28;20229;-70
2022/10/08 06:17:06;;;;;;;19.13;12.60;;;;;;;12.86;100.00;98511.63;5106392;28;20253;-70
2022/10/08 06:19:35;;;;;;;15.40;12.17;;;;;;;12.87;100.00;98522.16;5104991;28;20265;-70
2022/10/08 06:22:02;;;;;;;20.63;12.70;;;;;;;12.88;100.00;98517.66;5106568;28;20230;-70
2022/10/08 06:24:30;;;;;;;18.37;13.03;;;;;;;12.90;100.00;98521.09;5108418;28;20248;-70
2022/10/08 06:26:57;;;;;;;18.23;12.17;;;;;;;12.94;100.00;98517.22;5106274;28;20258;-70
2022/10/08 06:29:24;;;;;;;20.10;12.40;;;;;;;12.95;100.00;98513.66;5104823;28;20262;-70
2022/10/08 06:31:51;;;;;;;15.30;12.27;;;;;;;12.96;100.00;98516.19;5105975;28;20613;-70
2022/10/08 06:34:18;;;;;;;15.53;12.00;;;;;;;12.98;100.00;98518.75;5108392;28;20305;-70
2022/10/08 06:36:45;;;;;;;14.03;10.90;;;;;;;13.00;100.00;98524.78;5106407;28;20258;-70
2022/10/08 06:39:13;;;;;;;16.23;12.50;;;;;;;13.02;100.00;98520.22;5102707;28;20258;-70
2022/10/08 06:41:41;;;;;;;17.10;11.93;;;;;;;13.05;100.00;98520.84;5105887;28;20268;-70
2022/10/08 06:44:11;;;;;;;13.40;11.33;;;;;;;13.13;100.00;98533.53;5115881;28;20259;-70
2022/10/08 06:46:38;;;;;;;13.63;10.67;;;;;;;13.17;100.00;98540.31;5105651;28;20274;-70
2022/10/08 06:49:05;;;;;;;13.70;11.67;;;;;;;13.21;100.00;98536.50;5104315;28;20260;-70
2022/10/08 06:51:31;;;;;;;16.23;11.93;;;;;;;13.26;100.00;98534.34;5105978;28;20229;-70
2022/10/08 06:53:59;;;;;;;17.40;12.03;;;;;;;13.31;100.00;98543.66;5108347;28;20310;-70
2022/10/08 06:56:26;;;;;;;18.07;12.00;;;;;;;13.38;100.00;98549.38;5106472;28;20272;-70
2022/10/08 06:58:54;;;;;;;18.33;12.13;;;;;;;13.43;100.00;98549.88;5104187;28;20274;-70
2022/10/08 07:01:22;;;;;;;17.37;11.87;;;;;;;13.48;100.00;98550.38;5105700;28;20649;-70
2022/10/08 07:03:50;;;;;;;17.70;12.03;;;;;;;13.52;100.00;98557.16;5107853;28;20269;-71
2022/10/08 07:06:17;;;;;;;14.83;11.70;;;;;;;13.60;100.00;98557.44;5103789;28;20222;-70
2022/10/08 07:08:44;;;;;;;17.27;12.90;;;;;;;13.65;100.00;98556.16;5104079;28;20332;-70
2022/10/08 07:11:12;;;;;;;17.10;12.47;;;;;;;13.76;100.00;98558.00;5105459;28;20270;-70
2022/10/08 07:13:40;;;;;;;19.00;12.70;;;;;;;13.81;100.00;98563.81;5107768;28;20260;-70
2022/10/08 07:16:10;;;;;;;17.83;11.97;;;;;;;13.95;100.00;98556.50;5105369;28;20599;-70
2022/10/08 07:18:38;;;;;;;14.13;11.70;;;;;;;14.04;100.00;98570.88;5103846;28;20281;-70
2022/10/08 07:21:06;;;;;;;17.70;11.80;;;;;;;14.18;100.00;98570.69;5105935;28;20274;-70
2022/10/08 07:23:33;;;;;;;13.80;9.90;;;;;;;14.30;100.00;98583.06;5107580;28;20263;-70
2022/10/08 07:26:02;;;;;;;15.00;10.17;;;;;;;14.40;100.00;98576.06;5104722;28;20272;-70
2022/10/08 07:28:32;;;;;;;13.23;9.73;;;;;;;14.49;100.00;98588.66;5103705;28;20264;-70
2022/10/08 07:31:03;;;;;;;13.33;9.10;;;;;;;14.58;100.00;98587.94;5106077;28;20611;-71
2022/10/08 07:33:31;;;;;;;13.30;9.40;;;;;;;14.70;100.00;98597.59;5105622;28;20259;-71
2022/10/08 07:36:06;;;;;;;14.43;8.20;;;;;;;14.74;100.00;98596.41;5104477;28;20230;-70
2022/10/08 07:38:32;;;;;;;12.53;7.93;;;;;;;14.95;100.00;98600.88;5103491;28;20275;-70
2022/10/08 07:40:59;;;;;;;8.97;7.50;;;;;;;15.16;100.00;98606.31;5107343;28;20304;-71
2022/10/08 07:43:26;;;;;;;11.50;6.67;;;;;;;15.37;100.00;98604.59;5106810;28;20259;-71
2022/10/08 07:45:52;;;;;;;10.47;5.30;;;;;;;15.42;100.00;98603.28;5103503;28;20227;-71
2022/10/08 07:48:19;;;;;;;10.33;5.30;;;;;;;15.53;97.86;98605.06;5103503;28;20260;-70
2022/10/08 07:50:47;;;;;;;5.80;4.13;;;;;;;15.56;93.34;98599.47;5106959;28;20219;-71
2022/10/08 07:53:14;;;;;;;7.33;3.63;;;;;;;15.52;90.33;98608.72;5106891;28;20261;-72
2022/10/08 07:55:40;;;;;;;10.27;4.17;;;;;;;15.46;90.36;98609.22;5095890;28;20264;-70
2022/10/08 07:58:07;;;;;;;5.50;3.17;;;;;;;15.44;85.95;98597.81;5108474;28;20280;-71
2022/10/08 08:00:34;;;;;;;6.47;3.00;;;;;;;15.49;82.25;98599.16;5105482;28;20229;-71
2022/10/08 08:03:00;;;;;;;5.83;2.57;;;;;;;15.57;82.01;98602.03;5107030;28;20224;-72
2022/10/08 08:05:27;;;;;;;8.53;2.43;;;;;;;15.75;81.07;98599.66;5103201;28;20621;-72
2022/10/08 08:07:55;;;;;;;5.37;2.50;;;;;;;15.83;81.44;98602.56;5103185;28;20281;-72
2022/10/08 08:10:21;;;;;;;4.63;2.27;;;;;;;15.94;76.85;98591.84;5106110;28;20259;-71
2022/10/08 08:12:48;;;;;;;6.37;2.70;;;;;;;15.85;76.44;98589.94;5106993;28;20291;-71
2022/10/08 08:15:15;;;;;;;4.87;2.37;;;;;;;15.79;77.44;98604.63;5103389;28;20261;-72
2022/10/08 08:17:41;;;;;;;4.77;2.23;;;;;;;15.77;77.47;98603.06;5103092;28;20606;-71
2022/10/08 08:20:09;;;;;;;6.37;2.50;;;;;;;15.80;74.17;98602.78;5105466;28;20264;-72
2022/10/08 08:22:35;;;;;;;6.80;2.07;;;;;;;15.78;70.83;98586.09;5106849;28;20265;-72
2022/10/08 08:25:04;;;;;;;5.17;2.00;;;;;;;15.69;71.93;98605.50;5103752;28;20672;-71
2022/10/08 08:27:31;;;;;;;6.43;2.73;;;;;;;15.48;73.04;98601.94;5101336;28;20261;-71
2022/10/08 08:29:57;;;;;;;6.20;2.20;;;;;;;15.46;73.55;98614.53;5105431;28;20258;-72
2022/10/08 08:32:24;;;;;;;11.67;2.80;;;;;;;15.44;74.26;98617.31;5106811;28;20271;-70
2022/10/08 08:34:51;;;;;;;4.03;2.07;;;;;;;15.45;75.10;98619.00;5103841;28;20516;-70
2022/10/08 08:37:18;;;;;;;7.90;2.57;;;;;;;15.44;73.02;98611.13;5101903;28;20229;-70
2022/10/08 08:39:45;;;;;;;5.13;2.00;;;;;;;15.58;75.31;98621.53;5103788;28;20331;-70
2022/10/08 08:42:34;;;;;;;8.80;3.10;;;;;;;15.67;73.54;98618.97;5106256;28;20228;-70
2022/10/08 08:45:03;;;;;;;7.03;2.63;;;;;;;15.80;73.86;98619.66;5094958;28;20225;-71
2022/10/08 08:47:35;;;;;;;7.77;2.60;;;;;;;15.91;73.43;98626.75;5103314;28;20260;-68
2022/10/08 08:50:06;;;;;;;5.83;2.37;;;;;;;15.98;73.50;98626.94;5107436;28;20265;-71
2022/10/08 08:52:39;;;;;;;6.07;2.13;;;;;;;16.10;69.78;98617.09;5107819;28;20265;-68
2022/10/08 08:55:14;;;;;;;6.80;2.27;;;;;;;16.21;69.71;98615.22;5102813;28;20256;-70
2022/10/08 08:57:50;;;;;;;12.27;2.53;;;;;;;16.33;69.43;98616.84;5089639;28;20234;-69
2022/10/08 09:00:21;;;;;;;6.07;2.20;;;;;;;16.38;66.45;98613.81;5109594;28;20304;-71
2022/10/08 09:02:54;;;;;;;6.70;2.33;;;;;;;16.51;66.30;98612.63;5111608;28;20723;-71
2022/10/08 09:05:24;;;;;;;3.77;1.90;;;;;;;16.66;67.95;98611.34;5109198;28;20257;-71
2022/10/08 09:07:57;;;;;;;6.13;2.73;;;;;;;16.68;65.60;98608.50;5107816;28;20253;-71
2022/10/08 09:10:32;;;;;;;5.53;2.50;;;;;;;16.71;65.67;98611.75;5106352;28;20262;-70
2022/10/08 09:13:01;;;;;;;4.50;1.77;;;;;;;16.69;66.42;98619.06;5110685;28;20265;-71
2022/10/08 09:15:32;;;;;;;6.37;2.13;;;;;;;16.74;66.98;98624.00;5110062;28;20778;-71
2022/10/08 09:18:03;;;;;;;5.17;2.00;;;;;;;16.85;66.68;98622.13;5107985;28;20727;-71
2022/10/08 09:20:31;;;;;;;5.73;2.07;;;;;;;16.91;64.55;98618.91;5104233;28;20582;-70
2022/10/08 09:22:58;;;;;;;5.80;1.93;;;;;;;17.02;64.90;98617.97;5107859;28;20549;-73
2022/10/08 09:25:30;;;;;;;4.40;2.13;;;;;;;17.18;64.24;98619.16;5110138;28;20577;-70
2022/10/08 09:27:59;;;;;;;4.67;2.27;;;;;;;17.20;63.17;98627.88;5106943;28;20306;-69
2022/10/08 09:30:31;;;;;;;6.67;2.47;;;;;;;17.12;62.68;98621.53;5106101;28;20272;-69
2022/10/08 09:33:00;;;;;;;6.23;2.20;;;;;;;16.90;64.96;98635.06;5109068;28;20230;-70
2022/10/08 09:35:27;;;;;;;5.77;2.23;;;;;;;16.84;65.81;98630.25;5109710;28;20596;-69
2022/10/08 09:37:55;;;;;;;4.37;2.03;;;;;;;16.78;65.48;98630.78;5105794;28;20556;-70
2022/10/08 09:40:24;;;;;;;7.00;2.53;;;;;;;16.71;65.33;98634.97;5105849;28;20683;-72
2022/10/08 09:43:10;;;;;;;7.23;2.23;;;;;;;16.74;61.60;98624.00;5109149;28;20541;-71
2022/10/08 09:45:41;;;;;;;6.90;1.83;;;;;;;16.72;62.87;98642.00;5106772;28;20226;-71
2022/10/08 09:48:23;;;;;;;7.63;2.50;;;;;;;16.68;62.43;98640.53;5104640;28;20308;-71
2022/10/08 09:51:14;;;;;;;6.83;2.27;;;;;;;16.63;62.80;98638.28;5107206;28;20266;-72
2022/10/08 09:53:44;;;;;;;5.43;2.20;;;;;;;16.74;63.33;98640.88;5102054;28;20637;-71
2022/10/08 09:56:13;;;;;;;4.93;2.17;;;;;;;16.78;62.83;98630.78;5098394;28;20253;-74
2022/10/08 09:58:52;;;;;;;8.70;2.90;;;;;;;16.90;63.26;98646.59;5106187;28;20285;-73
2022/10/08 10:01:21;;;;;;;4.90;2.20;;;;;;;16.90;63.27;98635.91;5109219;28;20269;-73
2022/10/08 10:03:50;;;;;;;6.23;2.50;;;;;;;16.88;64.04;98645.88;5110595;28;20225;-73
2022/10/08 10:06:28;;;;;;;8.13;2.30;;;;;;;16.85;65.74;98654.16;5108382;28;20288;-73
2022/10/08 10:09:00;;;;;;;5.17;2.33;;;;;;;16.95;65.82;98657.72;5106898;28;20280;-73
2022/10/08 10:11:36;;;;;;;4.37;2.30;;;;;;;16.97;67.35;98661.09;5110508;28;20268;-72
2022/10/08 10:14:13;;;;;;;5.73;2.63;;;;;;;16.86;64.99;98652.31;5107361;28;20629;-73
2022/10/08 10:16:44;;;;;;;5.83;2.30;;;;;;;16.81;65.87;98655.38;5106453;28;20230;-72
2022/10/08 10:19:15;;;;;;;7.63;2.30;;;;;;;16.74;66.23;98659.56;5110095;28;20246;-73
2022/10/08 10:21:51;;;;;;;5.50;2.23;;;;;;;16.81;63.43;98651.84;5110264;28;20308;-80
2022/10/08 10:24:35;;;;;;;8.03;2.10;;;;;;;16.70;63.25;98647.44;5106673;28;20222;-80
2022/10/08 10:27:09;;;;;;;6.93;2.23;;;;;;;16.72;63.47;98645.53;5110136;28;20256;-79
2022/10/08 10:29:47;;;;;;;7.63;2.10;;;;;;;16.81;62.80;98647.38;5109269;28;20580;-80
2022/10/08 10:32:20;;;;;;;5.10;2.20;;;;;;;16.94;59.05;98631.16;5106334;28;20610;-80
2022/10/08 10:34:57;;;;;;;8.23;1.80;;;;;;;16.91;59.19;98626.06;5109181;28;20262;-79
2022/10/08 10:37:32;;;;;;;3.87;1.80;;;;;;;16.90;60.31;98633.25;5110076;28;20617;-80
2022/10/08 10:40:14;;;;;;;5.10;2.00;;;;;;;17.06;60.89;98636.25;5104513;28;20277;-76
2022/10/08 10:42:49;;;;;;;6.40;2.10;;;;;;;17.08;58.26;98630.78;5108770;28;20267;-78
2022/10/08 10:45:20;;;;;;;5.87;2.10;;;;;;;17.09;57.57;98625.31;5109735;28;20225;-78
2022/10/08 10:47:50;;;;;;;5.73;2.00;;;;;;;17.09;57.02;98621.78;5106125;28;20270;-78
2022/10/08 10:50:23;;;;;;;8.17;1.73;;;;;;;17.04;55.16;98616.88;5105971;28;20551;-78
2022/10/08 10:53:00;;;;;;;6.43;2.07;;;;;;;17.10;55.15;98616.31;5107509;28;20262;-72
2022/10/08 10:55:32;;;;;;;3.57;1.63;;;;;;;16.96;56.45;98635.34;5111910;28;20253;-71
2022/10/08 10:58:16;;;;;;;8.50;2.30;;;;;;;16.98;56.76;98633.41;5103520;28;20272;-72
2022/10/08 11:00:54;;;;;;;6.97;2.10;;;;;;;17.04;58.51;98632.88;5104009;28;20288;-72
2022/10/08 11:03:30;;;;;;;5.63;1.87;;;;;;;17.19;55.25;98623.50;5096710;28;20258;-71
2022/10/08 11:06:11;;;;;;;5.77;1.80;;;;;;;17.08;55.36;98623.59;5106483;28;20274;-76
2022/10/08 11:08:44;;;;;;;6.07;2.40;;;;;;;17.02;55.74;98629.47;5106504;28;20270;-78
2022/10/08 11:11:27;;;;;;;4.17;2.00;;;;;;;17.01;56.31;98627.78;5103100;28;20218;-77
2022/10/08 11:14:06;;;;;;;4.53;1.87;;;;;;;16.90;55.92;98627.91;5111296;28;20257;-75
2022/10/08 11:16:44;;;;;;;5.13;1.47;;;;;;;16.89;57.31;98631.53;5104311;28;20262;-76
2022/10/08 11:19:23;;;;;;;4.70;1.63;;;;;;;16.92;56.37;98620.59;5099656;28;20698;-76
2022/10/08 11:22:00;;;;;;;4.53;1.50;;;;;;;17.07;56.19;98621.91;5098034;28;20230;-76
2022/10/08 11:24:51;;;;;;;5.13;1.63;;;;;;;17.01;55.78;98622.44;5098047;28;20700;-71
2022/10/08 11:27:28;;;;;;;7.27;1.97;;;;;;;16.98;56.11;98622.75;5114188;28;20305;-71
2022/10/08 11:30:03;;;;;;;6.33;1.80;;;;;;;17.05;56.25;98628.38;5114456;28;20641;-71